Akaska, South Dakota
Current Conditions -  °F | °C
As of 3:52 PM on Wednesday 22 Oct 2014 (Local Time) from KMBG Reporting Station
Few Clouds Few Clouds  
Wind Chill: 65°   Ceiling: Unl
Heat Index: 65°   Visibility: 10mi
Dew Point: 43°   Wind: 12mph
Humidity: 45%   Direction: 290°WNW
Pressure: 29.88"   Gusts: NA
Location:  45.33°N, 100.12°W
Report Text: KMBG 222052Z AUTO 29010KT 10SM FEW095 18/06 A2988 RMK AO2 SLP115 T01830061 55004
Loading
Personal Weather Stations






























Interactive Weather Map
Tropical Storm Tracking
New forecast layout! Learn more

10-Day Weather Forecast

Advertisements
Track Severe Weather on mobile